map of SYY home
SYY - Airport
Location
City:  Stornoway, Hebrides, Scotland, United Kingdom
ICAO:EGPO
IATA:SYY

Details
Type:Airport (Aerodrome, Airfield)
Use:Public/Civil, International (customs port of entry)
Latitude:5812'56"N (58.215556)
Longitude:619'52"W (-6.331110)
Datum:WGS 1984
Elevation:26 ft (8 m)
Variation:3.83W (WMM2015 magnetic declination)
0.19 annual change
Runways:2
Longest:7218 × 151 ft (2200 × 46 m), paved

Time
Time Zone:UTC+0 (DST+1)
Local Time:

Weather
METAR:EGPO 161820Z 36021KT 9999 FEW012 SCT032 BKN042 03/M02 Q1001

Related Locations
Nearby:
Farthest:SZS: 11614 mi / 18691 km
Ryan's Creek, Stewart Island, STL, NZ

Find:

   beyond  
but within

Other Information
Maps:
NOTAMs:
Links:
Sources:

  
  • flag of United Kingdom
  • flag of Scotland
  

Airport Diagram

Airport diagram for SYY

Larger airport diagram (OBSOLETE) from NGA

Sectional Chart

Flight Planning
at skyvector.com

Satellite Image

Google Maps Satellite view

 

Copyright © 2004-2019 Karl L. Swartz. All rights reserved.
The Great Circle Mapper name and logo are trademarks of the Great Circle Mapper.
All other trademarks mentioned herein belong to their respective owners.
Please see credits for attibutions and further copyright information.

  Follow gcmap on Facebook Follow gcmap on Twitter Follow gcmap on Google+ GCmap on LinkedIn

hCard Microformat

Geo Microformat